sensor_id;sensor_type;location;lat;lon;timestamp;P1;durP1;ratioP1;P2;durP2;ratioP2
11907;SDS011;6014;47.690;9.130;2023-06-22T00:01:28;11.20;;;5.55;;
11907;SDS011;6014;47.690;9.130;2023-06-22T00:04:03;8.68;;;5.00;;
11907;SDS011;6014;47.690;9.130;2023-06-22T00:06:32;13.98;;;5.75;;
11907;SDS011;6014;47.690;9.130;2023-06-22T00:09:00;9.90;;;5.00;;
11907;SDS011;6014;47.690;9.130;2023-06-22T00:11:29;9.98;;;4.70;;
11907;SDS011;6014;47.690;9.130;2023-06-22T00:13:59;13.65;;;6.78;;
11907;SDS011;6014;47.690;9.130;2023-06-22T00:16:28;8.55;;;5.03;;
11907;SDS011;6014;47.690;9.130;2023-06-22T00:18:56;9.40;;;5.05;;
11907;SDS011;6014;47.690;9.130;2023-06-22T00:21:28;16.08;;;5.40;;
11907;SDS011;6014;47.690;9.130;2023-06-22T00:23:57;9.38;;;4.93;;
11907;SDS011;6014;47.690;9.130;2023-06-22T00:26:25;12.13;;;5.13;;
11907;SDS011;6014;47.690;9.130;2023-06-22T00:28:57;10.70;;;4.70;;
11907;SDS011;6014;47.690;9.130;2023-06-22T00:31:26;11.88;;;5.57;;
11907;SDS011;6014;47.690;9.130;2023-06-22T00:36:31;10.30;;;5.05;;
11907;SDS011;6014;47.690;9.130;2023-06-22T00:39:05;10.52;;;4.70;;
11907;SDS011;6014;47.690;9.130;2023-06-22T00:41:34;10.25;;;4.85;;
11907;SDS011;6014;47.690;9.130;2023-06-22T00:44:02;8.85;;;5.10;;
11907;SDS011;6014;47.690;9.130;2023-06-22T00:46:31;10.35;;;4.72;;
11907;SDS011;6014;47.690;9.130;2023-06-22T00:48:59;12.20;;;5.68;;
11907;SDS011;6014;47.690;9.130;2023-06-22T00:51:27;14.00;;;5.00;;
11907;SDS011;6014;47.690;9.130;2023-06-22T00:53:57;13.18;;;5.55;;
11907;SDS011;6014;47.690;9.130;2023-06-22T00:56:25;11.65;;;5.57;;
11907;SDS011;6014;47.690;9.130;2023-06-22T00:58:57;11.98;;;5.40;;
11907;SDS011;6014;47.690;9.130;2023-06-22T01:01:26;15.75;;;6.93;;
11907;SDS011;6014;47.690;9.130;2023-06-22T01:03:54;14.52;;;6.15;;
11907;SDS011;6014;47.690;9.130;2023-06-22T01:09:20;13.20;;;5.35;;
11907;SDS011;6014;47.690;9.130;2023-06-22T01:11:54;10.48;;;4.70;;
11907;SDS011;6014;47.690;9.130;2023-06-22T01:14:28;20.50;;;5.68;;
11907;SDS011;6014;47.690;9.130;2023-06-22T01:17:04;10.68;;;5.20;;
11907;SDS011;6014;47.690;9.130;2023-06-22T01:19:35;12.40;;;4.80;;
11907;SDS011;6014;47.690;9.130;2023-06-22T01:22:09;11.65;;;4.93;;
11907;SDS011;6014;47.690;9.130;2023-06-22T01:24:55;14.40;;;5.45;;
11907;SDS011;6014;47.690;9.130;2023-06-22T01:27:36;11.18;;;5.10;;
11907;SDS011;6014;47.690;9.130;2023-06-22T01:30:22;12.40;;;4.63;;
11907;SDS011;6014;47.690;9.130;2023-06-22T01:32:53;10.13;;;4.80;;
11907;SDS011;6014;47.690;9.130;2023-06-22T01:35:23;12.02;;;5.10;;
11907;SDS011;6014;47.690;9.130;2023-06-22T01:37:52;10.23;;;4.68;;
11907;SDS011;6014;47.690;9.130;2023-06-22T01:40:21;15.15;;;5.15;;
11907;SDS011;6014;47.690;9.130;2023-06-22T01:42:51;7.47;;;4.32;;
11907;SDS011;6014;47.690;9.130;2023-06-22T01:45:19;11.95;;;4.90;;
11907;SDS011;6014;47.690;9.130;2023-06-22T01:47:49;12.75;;;5.10;;
11907;SDS011;6014;47.690;9.130;2023-06-22T01:50:18;9.95;;;4.03;;
11907;SDS011;6014;47.690;9.130;2023-06-22T01:55:17;13.57;;;4.82;;
11907;SDS011;6014;47.690;9.130;2023-06-22T01:57:45;13.05;;;5.07;;
11907;SDS011;6014;47.690;9.130;2023-06-22T02:00:14;12.73;;;4.88;;
11907;SDS011;6014;47.690;9.130;2023-06-22T02:02:51;8.60;;;4.63;;
11907;SDS011;6014;47.690;9.130;2023-06-22T02:05:22;14.25;;;4.85;;
11907;SDS011;6014;47.690;9.130;2023-06-22T02:07:55;12.00;;;5.07;;
11907;SDS011;6014;47.690;9.130;2023-06-22T02:13:15;15.10;;;4.60;;
11907;SDS011;6014;47.690;9.130;2023-06-22T02:15:44;10.55;;;4.43;;
11907;SDS011;6014;47.690;9.130;2023-06-22T02:18:14;7.75;;;4.25;;
11907;SDS011;6014;47.690;9.130;2023-06-22T02:20:59;8.90;;;4.25;;
11907;SDS011;6014;47.690;9.130;2023-06-22T02:23:27;13.70;;;4.55;;
11907;SDS011;6014;47.690;9.130;2023-06-22T02:25:56;12.10;;;4.45;;
11907;SDS011;6014;47.690;9.130;2023-06-22T02:28:24;12.38;;;4.65;;
11907;SDS011;6014;47.690;9.130;2023-06-22T02:30:52;13.63;;;5.28;;
11907;SDS011;6014;47.690;9.130;2023-06-22T02:33:21;9.43;;;4.28;;
11907;SDS011;6014;47.690;9.130;2023-06-22T02:35:50;9.40;;;4.88;;
11907;SDS011;6014;47.690;9.130;2023-06-22T02:38:18;11.63;;;4.22;;
11907;SDS011;6014;47.690;9.130;2023-06-22T02:40:50;12.90;;;5.30;;
11907;SDS011;6014;47.690;9.130;2023-06-22T02:43:19;13.63;;;4.43;;
11907;SDS011;6014;47.690;9.130;2023-06-22T02:45:47;12.40;;;4.60;;
11907;SDS011;6014;47.690;9.130;2023-06-22T02:48:16;17.45;;;5.07;;
11907;SDS011;6014;47.690;9.130;2023-06-22T02:50:45;10.57;;;4.90;;
11907;SDS011;6014;47.690;9.130;2023-06-22T02:53:13;14.40;;;4.38;;
11907;SDS011;6014;47.690;9.130;2023-06-22T02:55:41;15.85;;;5.13;;
11907;SDS011;6014;47.690;9.130;2023-06-22T02:58:10;11.77;;;4.45;;
11907;SDS011;6014;47.690;9.130;2023-06-22T03:00:39;13.13;;;4.88;;
11907;SDS011;6014;47.690;9.130;2023-06-22T03:03:07;8.93;;;3.70;;
11907;SDS011;6014;47.690;9.130;2023-06-22T03:05:55;9.60;;;4.22;;
11907;SDS011;6014;47.690;9.130;2023-06-22T03:08:23;10.68;;;4.95;;
11907;SDS011;6014;47.690;9.130;2023-06-22T03:10:51;8.52;;;4.25;;
11907;SDS011;6014;47.690;9.130;2023-06-22T03:13:20;8.43;;;4.38;;
11907;SDS011;6014;47.690;9.130;2023-06-22T03:15:48;10.98;;;4.80;;
11907;SDS011;6014;47.690;9.130;2023-06-22T03:20:59;9.25;;;4.20;;
11907;SDS011;6014;47.690;9.130;2023-06-22T03:23:28;10.20;;;4.60;;
11907;SDS011;6014;47.690;9.130;2023-06-22T03:25:56;10.32;;;5.07;;
11907;SDS011;6014;47.690;9.130;2023-06-22T03:28:25;12.95;;;4.40;;
11907;SDS011;6014;47.690;9.130;2023-06-22T03:31:08;14.75;;;4.43;;
11907;SDS011;6014;47.690;9.130;2023-06-22T03:33:37;11.65;;;4.28;;
11907;SDS011;6014;47.690;9.130;2023-06-22T03:36:07;9.98;;;4.57;;
11907;SDS011;6014;47.690;9.130;2023-06-22T03:38:36;10.27;;;4.53;;
11907;SDS011;6014;47.690;9.130;2023-06-22T03:41:08;10.32;;;4.55;;
11907;SDS011;6014;47.690;9.130;2023-06-22T03:43:36;14.52;;;4.85;;
11907;SDS011;6014;47.690;9.130;2023-06-22T03:46:06;9.68;;;4.15;;
11907;SDS011;6014;47.690;9.130;2023-06-22T03:48:34;8.70;;;4.32;;
11907;SDS011;6014;47.690;9.130;2023-06-22T03:51:09;8.25;;;4.13;;
11907;SDS011;6014;47.690;9.130;2023-06-22T03:53:37;12.77;;;4.65;;
11907;SDS011;6014;47.690;9.130;2023-06-22T03:56:05;11.40;;;4.53;;
11907;SDS011;6014;47.690;9.130;2023-06-22T03:58:33;7.97;;;4.40;;
11907;SDS011;6014;47.690;9.130;2023-06-22T04:01:03;10.00;;;5.93;;
11907;SDS011;6014;47.690;9.130;2023-06-22T04:03:32;10.82;;;4.85;;
11907;SDS011;6014;47.690;9.130;2023-06-22T04:06:01;11.32;;;4.57;;
11907;SDS011;6014;47.690;9.130;2023-06-22T04:08:30;15.05;;;5.25;;
11907;SDS011;6014;47.690;9.130;2023-06-22T04:10:59;10.75;;;5.22;;
11907;SDS011;6014;47.690;9.130;2023-06-22T04:13:27;7.97;;;4.18;;
11907;SDS011;6014;47.690;9.130;2023-06-22T04:15:55;10.13;;;4.93;;
11907;SDS011;6014;47.690;9.130;2023-06-22T04:18:34;11.70;;;4.63;;
11907;SDS011;6014;47.690;9.130;2023-06-22T04:21:02;7.72;;;4.28;;
11907;SDS011;6014;47.690;9.130;2023-06-22T04:23:32;9.27;;;4.25;;
11907;SDS011;6014;47.690;9.130;2023-06-22T04:26:00;10.85;;;5.28;;
11907;SDS011;6014;47.690;9.130;2023-06-22T04:28:29;16.02;;;4.93;;
11907;SDS011;6014;47.690;9.130;2023-06-22T04:31:01;8.88;;;5.00;;
11907;SDS011;6014;47.690;9.130;2023-06-22T04:36:10;12.23;;;5.50;;
11907;SDS011;6014;47.690;9.130;2023-06-22T04:41:12;12.90;;;5.32;;
11907;SDS011;6014;47.690;9.130;2023-06-22T04:43:52;11.85;;;5.15;;
11907;SDS011;6014;47.690;9.130;2023-06-22T04:46:20;12.95;;;5.55;;
11907;SDS011;6014;47.690;9.130;2023-06-22T04:48:49;9.98;;;4.95;;
11907;SDS011;6014;47.690;9.130;2023-06-22T04:53:58;12.20;;;5.13;;
11907;SDS011;6014;47.690;9.130;2023-06-22T04:56:27;12.50;;;5.82;;
11907;SDS011;6014;47.690;9.130;2023-06-22T04:59:02;11.57;;;5.47;;
11907;SDS011;6014;47.690;9.130;2023-06-22T05:01:30;11.77;;;5.95;;
11907;SDS011;6014;47.690;9.130;2023-06-22T05:03:58;14.25;;;5.68;;
11907;SDS011;6014;47.690;9.130;2023-06-22T05:06:29;8.60;;;4.47;;
11907;SDS011;6014;47.690;9.130;2023-06-22T05:08:59;17.00;;;5.75;;
11907;SDS011;6014;47.690;9.130;2023-06-22T05:11:29;11.75;;;5.55;;
11907;SDS011;6014;47.690;9.130;2023-06-22T05:16:35;10.73;;;5.30;;
11907;SDS011;6014;47.690;9.130;2023-06-22T05:19:04;11.38;;;5.03;;
11907;SDS011;6014;47.690;9.130;2023-06-22T05:21:32;10.88;;;4.95;;
11907;SDS011;6014;47.690;9.130;2023-06-22T05:24:02;13.93;;;5.00;;
11907;SDS011;6014;47.690;9.130;2023-06-22T05:26:32;10.15;;;5.10;;
11907;SDS011;6014;47.690;9.130;2023-06-22T05:29:02;10.80;;;5.70;;
11907;SDS011;6014;47.690;9.130;2023-06-22T05:31:30;12.65;;;5.30;;
11907;SDS011;6014;47.690;9.130;2023-06-22T05:33:58;8.02;;;4.63;;
11907;SDS011;6014;47.690;9.130;2023-06-22T05:36:27;10.68;;;5.45;;
11907;SDS011;6014;47.690;9.130;2023-06-22T05:38:56;12.77;;;5.55;;
11907;SDS011;6014;47.690;9.130;2023-06-22T05:41:26;9.98;;;5.65;;
11907;SDS011;6014;47.690;9.130;2023-06-22T05:43:54;10.18;;;5.07;;
11907;SDS011;6014;47.690;9.130;2023-06-22T05:46:22;11.82;;;4.88;;
11907;SDS011;6014;47.690;9.130;2023-06-22T05:48:50;12.25;;;5.05;;
11907;SDS011;6014;47.690;9.130;2023-06-22T05:51:26;10.90;;;5.60;;
11907;SDS011;6014;47.690;9.130;2023-06-22T05:53:54;13.48;;;5.45;;
11907;SDS011;6014;47.690;9.130;2023-06-22T05:56:23;11.20;;;5.22;;
11907;SDS011;6014;47.690;9.130;2023-06-22T05:58:52;12.73;;;5.38;;
11907;SDS011;6014;47.690;9.130;2023-06-22T06:01:20;13.80;;;5.45;;
11907;SDS011;6014;47.690;9.130;2023-06-22T06:03:49;11.80;;;5.68;;
11907;SDS011;6014;47.690;9.130;2023-06-22T06:06:19;12.85;;;5.22;;
11907;SDS011;6014;47.690;9.130;2023-06-22T06:08:49;13.77;;;5.50;;
11907;SDS011;6014;47.690;9.130;2023-06-22T06:11:18;16.40;;;6.15;;
11907;SDS011;6014;47.690;9.130;2023-06-22T06:13:47;12.50;;;5.88;;
11907;SDS011;6014;47.690;9.130;2023-06-22T06:16:16;12.32;;;4.90;;
11907;SDS011;6014;47.690;9.130;2023-06-22T06:18:50;13.30;;;5.07;;
11907;SDS011;6014;47.690;9.130;2023-06-22T06:21:19;15.10;;;4.70;;
11907;SDS011;6014;47.690;9.130;2023-06-22T06:23:47;9.75;;;4.60;;
11907;SDS011;6014;47.690;9.130;2023-06-22T06:26:16;12.82;;;5.05;;
11907;SDS011;6014;47.690;9.130;2023-06-22T06:28:44;12.38;;;5.45;;
11907;SDS011;6014;47.690;9.130;2023-06-22T06:31:13;10.23;;;4.90;;
11907;SDS011;6014;47.690;9.130;2023-06-22T06:33:45;12.93;;;5.38;;
11907;SDS011;6014;47.690;9.130;2023-06-22T06:36:14;8.07;;;4.78;;
11907;SDS011;6014;47.690;9.130;2023-06-22T06:38:42;10.30;;;5.35;;
11907;SDS011;6014;47.690;9.130;2023-06-22T06:41:15;13.95;;;5.32;;
11907;SDS011;6014;47.690;9.130;2023-06-22T06:43:43;10.50;;;5.75;;
11907;SDS011;6014;47.690;9.130;2023-06-22T06:46:11;8.98;;;4.97;;
11907;SDS011;6014;47.690;9.130;2023-06-22T06:48:39;11.93;;;5.15;;
11907;SDS011;6014;47.690;9.130;2023-06-22T06:51:20;14.38;;;6.13;;
11907;SDS011;6014;47.690;9.130;2023-06-22T06:53:48;9.82;;;5.32;;
11907;SDS011;6014;47.690;9.130;2023-06-22T06:56:16;10.10;;;4.97;;
11907;SDS011;6014;47.690;9.130;2023-06-22T06:58:45;12.18;;;4.78;;
11907;SDS011;6014;47.690;9.130;2023-06-22T07:01:13;9.15;;;5.03;;
11907;SDS011;6014;47.690;9.130;2023-06-22T07:03:41;12.90;;;4.63;;
11907;SDS011;6014;47.690;9.130;2023-06-22T07:06:09;10.23;;;4.88;;
11907;SDS011;6014;47.690;9.130;2023-06-22T07:08:39;11.70;;;4.93;;
11907;SDS011;6014;47.690;9.130;2023-06-22T07:11:07;13.63;;;5.28;;
11907;SDS011;6014;47.690;9.130;2023-06-22T07:13:47;9.43;;;4.40;;
11907;SDS011;6014;47.690;9.130;2023-06-22T07:16:15;9.93;;;4.93;;
11907;SDS011;6014;47.690;9.130;2023-06-22T07:18:43;12.98;;;4.43;;
11907;SDS011;6014;47.690;9.130;2023-06-22T07:21:11;11.20;;;5.07;;
11907;SDS011;6014;47.690;9.130;2023-06-22T07:23:41;13.57;;;4.10;;
11907;SDS011;6014;47.690;9.130;2023-06-22T07:26:09;9.82;;;4.65;;
11907;SDS011;6014;47.690;9.130;2023-06-22T07:28:39;11.00;;;5.18;;
11907;SDS011;6014;47.690;9.130;2023-06-22T07:31:07;11.57;;;4.82;;
11907;SDS011;6014;47.690;9.130;2023-06-22T07:33:35;13.43;;;5.32;;
11907;SDS011;6014;47.690;9.130;2023-06-22T07:36:03;8.10;;;4.28;;
11907;SDS011;6014;47.690;9.130;2023-06-22T07:38:34;10.88;;;5.47;;
11907;SDS011;6014;47.690;9.130;2023-06-22T07:41:04;9.95;;;4.88;;
11907;SDS011;6014;47.690;9.130;2023-06-22T07:43:44;9.60;;;5.22;;
11907;SDS011;6014;47.690;9.130;2023-06-22T07:46:12;9.20;;;4.97;;
11907;SDS011;6014;47.690;9.130;2023-06-22T07:48:40;10.68;;;5.43;;
11907;SDS011;6014;47.690;9.130;2023-06-22T07:51:10;9.98;;;5.43;;
11907;SDS011;6014;47.690;9.130;2023-06-22T07:53:39;15.15;;;4.95;;
11907;SDS011;6014;47.690;9.130;2023-06-22T07:56:11;9.25;;;4.60;;
11907;SDS011;6014;47.690;9.130;2023-06-22T07:58:39;11.45;;;4.93;;
11907;SDS011;6014;47.690;9.130;2023-06-22T08:01:07;11.60;;;4.45;;
11907;SDS011;6014;47.690;9.130;2023-06-22T08:03:36;9.50;;;5.25;;
11907;SDS011;6014;47.690;9.130;2023-06-22T08:06:04;11.10;;;5.13;;
11907;SDS011;6014;47.690;9.130;2023-06-22T08:08:35;10.38;;;6.00;;
11907;SDS011;6014;47.690;9.130;2023-06-22T08:13:56;14.63;;;5.32;;
11907;SDS011;6014;47.690;9.130;2023-06-22T08:16:25;10.77;;;5.75;;
11907;SDS011;6014;47.690;9.130;2023-06-22T08:18:53;15.25;;;5.38;;
11907;SDS011;6014;47.690;9.130;2023-06-22T08:21:21;11.50;;;5.00;;
11907;SDS011;6014;47.690;9.130;2023-06-22T08:23:50;11.52;;;5.15;;
11907;SDS011;6014;47.690;9.130;2023-06-22T08:26:24;15.25;;;5.55;;
11907;SDS011;6014;47.690;9.130;2023-06-22T08:28:53;9.70;;;4.47;;
11907;SDS011;6014;47.690;9.130;2023-06-22T08:31:21;12.95;;;5.93;;
11907;SDS011;6014;47.690;9.130;2023-06-22T08:33:57;11.07;;;4.93;;
11907;SDS011;6014;47.690;9.130;2023-06-22T08:36:25;11.43;;;5.75;;
11907;SDS011;6014;47.690;9.130;2023-06-22T08:38:56;12.00;;;5.43;;
11907;SDS011;6014;47.690;9.130;2023-06-22T08:41:27;9.38;;;4.78;;
11907;SDS011;6014;47.690;9.130;2023-06-22T08:43:57;12.52;;;5.28;;
11907;SDS011;6014;47.690;9.130;2023-06-22T08:46:25;12.73;;;5.63;;
11907;SDS011;6014;47.690;9.130;2023-06-22T08:48:57;9.18;;;4.88;;
11907;SDS011;6014;47.690;9.130;2023-06-22T08:51:39;11.98;;;5.70;;
11907;SDS011;6014;47.690;9.130;2023-06-22T08:54:07;10.98;;;5.75;;
11907;SDS011;6014;47.690;9.130;2023-06-22T08:56:36;9.70;;;5.72;;
11907;SDS011;6014;47.690;9.130;2023-06-22T08:59:06;12.43;;;4.95;;
11907;SDS011;6014;47.690;9.130;2023-06-22T09:01:37;13.82;;;6.32;;
11907;SDS011;6014;47.690;9.130;2023-06-22T09:04:05;12.32;;;5.80;;
11907;SDS011;6014;47.690;9.130;2023-06-22T09:06:36;10.32;;;5.53;;
11907;SDS011;6014;47.690;9.130;2023-06-22T09:09:21;12.02;;;5.60;;
11907;SDS011;6014;47.690;9.130;2023-06-22T09:11:51;12.40;;;5.25;;
11907;SDS011;6014;47.690;9.130;2023-06-22T09:14:20;9.70;;;5.13;;
11907;SDS011;6014;47.690;9.130;2023-06-22T09:17:02;12.35;;;6.30;;
11907;SDS011;6014;47.690;9.130;2023-06-22T09:19:31;12.00;;;5.30;;
11907;SDS011;6014;47.690;9.130;2023-06-22T09:22:06;11.23;;;6.13;;
11907;SDS011;6014;47.690;9.130;2023-06-22T09:27:06;10.05;;;5.18;;
11907;SDS011;6014;47.690;9.130;2023-06-22T09:29:35;13.48;;;6.70;;
11907;SDS011;6014;47.690;9.130;2023-06-22T09:32:04;11.82;;;5.20;;
11907;SDS011;6014;47.690;9.130;2023-06-22T09:34:34;10.00;;;4.90;;
11907;SDS011;6014;47.690;9.130;2023-06-22T09:37:02;12.32;;;5.00;;
11907;SDS011;6014;47.690;9.130;2023-06-22T09:39:32;10.88;;;4.88;;
11907;SDS011;6014;47.690;9.130;2023-06-22T09:42:00;13.00;;;5.53;;
11907;SDS011;6014;47.690;9.130;2023-06-22T09:44:29;10.52;;;5.60;;
11907;SDS011;6014;47.690;9.130;2023-06-22T09:46:59;13.23;;;5.90;;
11907;SDS011;6014;47.690;9.130;2023-06-22T09:49:27;10.68;;;5.57;;
11907;SDS011;6014;47.690;9.130;2023-06-22T09:52:13;13.02;;;5.72;;
11907;SDS011;6014;47.690;9.130;2023-06-22T09:57:19;11.75;;;5.32;;
11907;SDS011;6014;47.690;9.130;2023-06-22T09:59:47;11.57;;;5.47;;
11907;SDS011;6014;47.690;9.130;2023-06-22T10:02:17;11.65;;;5.05;;
11907;SDS011;6014;47.690;9.130;2023-06-22T10:04:46;11.02;;;5.45;;
11907;SDS011;6014;47.690;9.130;2023-06-22T10:07:14;10.77;;;4.40;;
11907;SDS011;6014;47.690;9.130;2023-06-22T10:09:42;12.45;;;5.80;;
11907;SDS011;6014;47.690;9.130;2023-06-22T10:12:10;11.15;;;4.90;;
11907;SDS011;6014;47.690;9.130;2023-06-22T10:14:39;10.23;;;5.00;;
11907;SDS011;6014;47.690;9.130;2023-06-22T10:17:08;13.20;;;5.20;;
11907;SDS011;6014;47.690;9.130;2023-06-22T10:19:39;11.30;;;6.13;;
11907;SDS011;6014;47.690;9.130;2023-06-22T10:24:49;14.05;;;5.40;;
11907;SDS011;6014;47.690;9.130;2023-06-22T10:27:17;10.10;;;4.68;;
11907;SDS011;6014;47.690;9.130;2023-06-22T10:29:45;15.95;;;6.03;;
11907;SDS011;6014;47.690;9.130;2023-06-22T10:32:14;9.35;;;4.70;;
11907;SDS011;6014;47.690;9.130;2023-06-22T10:34:44;12.75;;;5.55;;
11907;SDS011;6014;47.690;9.130;2023-06-22T10:37:12;12.35;;;6.03;;
11907;SDS011;6014;47.690;9.130;2023-06-22T10:39:40;11.88;;;5.85;;
11907;SDS011;6014;47.690;9.130;2023-06-22T10:42:15;12.77;;;5.00;;
11907;SDS011;6014;47.690;9.130;2023-06-22T10:44:43;10.10;;;4.97;;
11907;SDS011;6014;47.690;9.130;2023-06-22T10:47:12;14.98;;;5.70;;
11907;SDS011;6014;47.690;9.130;2023-06-22T10:49:41;9.35;;;4.88;;
11907;SDS011;6014;47.690;9.130;2023-06-22T10:52:11;14.38;;;5.28;;
11907;SDS011;6014;47.690;9.130;2023-06-22T10:54:45;11.27;;;4.85;;
11907;SDS011;6014;47.690;9.130;2023-06-22T10:57:14;10.88;;;5.13;;
11907;SDS011;6014;47.690;9.130;2023-06-22T10:59:43;11.65;;;5.63;;
11907;SDS011;6014;47.690;9.130;2023-06-22T11:02:11;10.90;;;5.00;;
11907;SDS011;6014;47.690;9.130;2023-06-22T11:04:47;11.13;;;5.90;;
11907;SDS011;6014;47.690;9.130;2023-06-22T11:07:16;14.38;;;5.30;;
11907;SDS011;6014;47.690;9.130;2023-06-22T11:09:45;12.02;;;5.65;;
11907;SDS011;6014;47.690;9.130;2023-06-22T11:12:24;13.40;;;5.13;;
11907;SDS011;6014;47.690;9.130;2023-06-22T11:14:57;12.60;;;5.03;;
11907;SDS011;6014;47.690;9.130;2023-06-22T11:17:32;11.32;;;5.05;;
11907;SDS011;6014;47.690;9.130;2023-06-22T11:20:01;12.15;;;4.88;;
11907;SDS011;6014;47.690;9.130;2023-06-22T11:22:32;11.30;;;5.75;;
11907;SDS011;6014;47.690;9.130;2023-06-22T11:25:01;14.27;;;5.63;;
11907;SDS011;6014;47.690;9.130;2023-06-22T11:27:37;10.45;;;4.82;;
11907;SDS011;6014;47.690;9.130;2023-06-22T11:30:14;10.32;;;5.05;;
11907;SDS011;6014;47.690;9.130;2023-06-22T11:32:42;13.95;;;5.05;;
11907;SDS011;6014;47.690;9.130;2023-06-22T11:35:11;13.93;;;5.43;;
11907;SDS011;6014;47.690;9.130;2023-06-22T11:37:40;13.50;;;4.95;;
11907;SDS011;6014;47.690;9.130;2023-06-22T11:40:11;11.90;;;4.57;;
11907;SDS011;6014;47.690;9.130;2023-06-22T11:42:40;15.98;;;4.68;;
11907;SDS011;6014;47.690;9.130;2023-06-22T11:45:08;12.35;;;4.63;;
11907;SDS011;6014;47.690;9.130;2023-06-22T11:47:37;14.02;;;5.57;;
11907;SDS011;6014;47.690;9.130;2023-06-22T11:50:06;10.95;;;4.95;;
11907;SDS011;6014;47.690;9.130;2023-06-22T11:52:35;12.18;;;4.88;;
11907;SDS011;6014;47.690;9.130;2023-06-22T11:55:05;12.07;;;4.55;;
11907;SDS011;6014;47.690;9.130;2023-06-22T11:57:34;8.80;;;4.80;;
11907;SDS011;6014;47.690;9.130;2023-06-22T12:00:04;12.13;;;5.10;;
11907;SDS011;6014;47.690;9.130;2023-06-22T12:03:01;11.27;;;5.05;;
11907;SDS011;6014;47.690;9.130;2023-06-22T12:05:30;10.63;;;5.00;;
11907;SDS011;6014;47.690;9.130;2023-06-22T12:07:58;11.57;;;4.78;;
11907;SDS011;6014;47.690;9.130;2023-06-22T12:10:27;11.48;;;5.43;;
11907;SDS011;6014;47.690;9.130;2023-06-22T12:12:56;12.40;;;5.35;;
11907;SDS011;6014;47.690;9.130;2023-06-22T12:15:26;12.25;;;5.47;;
11907;SDS011;6014;47.690;9.130;2023-06-22T12:17:54;14.25;;;5.50;;
11907;SDS011;6014;47.690;9.130;2023-06-22T12:20:23;14.23;;;5.93;;
11907;SDS011;6014;47.690;9.130;2023-06-22T12:22:52;9.70;;;5.40;;
11907;SDS011;6014;47.690;9.130;2023-06-22T12:25:22;11.00;;;5.00;;
11907;SDS011;6014;47.690;9.130;2023-06-22T12:27:53;11.63;;;4.95;;
11907;SDS011;6014;47.690;9.130;2023-06-22T12:30:23;14.45;;;5.28;;
11907;SDS011;6014;47.690;9.130;2023-06-22T12:32:52;10.32;;;5.18;;
11907;SDS011;6014;47.690;9.130;2023-06-22T12:35:22;12.63;;;5.55;;
11907;SDS011;6014;47.690;9.130;2023-06-22T12:37:50;10.88;;;4.88;;
11907;SDS011;6014;47.690;9.130;2023-06-22T12:40:19;13.45;;;5.07;;
11907;SDS011;6014;47.690;9.130;2023-06-22T12:42:47;11.35;;;5.55;;
11907;SDS011;6014;47.690;9.130;2023-06-22T12:45:17;11.85;;;4.97;;
11907;SDS011;6014;47.690;9.130;2023-06-22T12:47:49;10.82;;;5.25;;
11907;SDS011;6014;47.690;9.130;2023-06-22T12:50:18;9.20;;;4.90;;
11907;SDS011;6014;47.690;9.130;2023-06-22T12:52:46;11.95;;;4.95;;
11907;SDS011;6014;47.690;9.130;2023-06-22T12:55:14;10.65;;;5.13;;
11907;SDS011;6014;47.690;9.130;2023-06-22T12:57:42;12.07;;;5.35;;
11907;SDS011;6014;47.690;9.130;2023-06-22T13:00:11;10.77;;;4.57;;
11907;SDS011;6014;47.690;9.130;2023-06-22T13:02:41;9.88;;;4.63;;
11907;SDS011;6014;47.690;9.130;2023-06-22T13:05:09;13.73;;;5.57;;
11907;SDS011;6014;47.690;9.130;2023-06-22T13:07:37;10.00;;;4.93;;
11907;SDS011;6014;47.690;9.130;2023-06-22T13:10:06;11.10;;;5.15;;
11907;SDS011;6014;47.690;9.130;2023-06-22T13:12:35;10.52;;;4.90;;
11907;SDS011;6014;47.690;9.130;2023-06-22T13:15:03;11.18;;;4.90;;
11907;SDS011;6014;47.690;9.130;2023-06-22T13:17:33;10.40;;;5.10;;
11907;SDS011;6014;47.690;9.130;2023-06-22T13:20:03;11.32;;;5.32;;
11907;SDS011;6014;47.690;9.130;2023-06-22T13:22:32;7.88;;;4.32;;
11907;SDS011;6014;47.690;9.130;2023-06-22T13:25:06;9.68;;;4.53;;
11907;SDS011;6014;47.690;9.130;2023-06-22T13:27:38;10.95;;;4.40;;
11907;SDS011;6014;47.690;9.130;2023-06-22T13:30:07;11.48;;;4.70;;
11907;SDS011;6014;47.690;9.130;2023-06-22T13:32:40;13.88;;;4.88;;
11907;SDS011;6014;47.690;9.130;2023-06-22T13:35:11;9.63;;;4.30;;
11907;SDS011;6014;47.690;9.130;2023-06-22T13:37:39;10.63;;;4.78;;
11907;SDS011;6014;47.690;9.130;2023-06-22T13:40:07;12.98;;;5.35;;
11907;SDS011;6014;47.690;9.130;2023-06-22T13:42:36;9.07;;;4.38;;
11907;SDS011;6014;47.690;9.130;2023-06-22T13:45:10;9.00;;;4.45;;
11907;SDS011;6014;47.690;9.130;2023-06-22T13:47:39;11.00;;;4.53;;
11907;SDS011;6014;47.690;9.130;2023-06-22T13:50:08;11.88;;;4.65;;
11907;SDS011;6014;47.690;9.130;2023-06-22T13:52:40;10.00;;;4.82;;
11907;SDS011;6014;47.690;9.130;2023-06-22T13:55:08;10.10;;;4.88;;
11907;SDS011;6014;47.690;9.130;2023-06-22T13:57:37;8.98;;;4.68;;
11907;SDS011;6014;47.690;9.130;2023-06-22T14:00:06;8.73;;;4.15;;
11907;SDS011;6014;47.690;9.130;2023-06-22T14:02:35;17.27;;;5.15;;
11907;SDS011;6014;47.690;9.130;2023-06-22T14:05:04;9.23;;;4.55;;
11907;SDS011;6014;47.690;9.130;2023-06-22T14:07:32;7.90;;;4.28;;
11907;SDS011;6014;47.690;9.130;2023-06-22T14:10:02;13.25;;;5.05;;
11907;SDS011;6014;47.690;9.130;2023-06-22T14:12:31;9.55;;;4.63;;
11907;SDS011;6014;47.690;9.130;2023-06-22T14:14:59;10.05;;;4.53;;
11907;SDS011;6014;47.690;9.130;2023-06-22T14:17:27;8.60;;;4.22;;
11907;SDS011;6014;47.690;9.130;2023-06-22T14:19:55;13.27;;;3.58;;
11907;SDS011;6014;47.690;9.130;2023-06-22T14:22:24;12.73;;;4.10;;
11907;SDS011;6014;47.690;9.130;2023-06-22T14:24:56;12.45;;;3.67;;
11907;SDS011;6014;47.690;9.130;2023-06-22T14:27:26;11.55;;;3.03;;
11907;SDS011;6014;47.690;9.130;2023-06-22T14:29:54;10.75;;;3.15;;
11907;SDS011;6014;47.690;9.130;2023-06-22T14:32:22;9.73;;;2.92;;
11907;SDS011;6014;47.690;9.130;2023-06-22T14:34:51;10.23;;;3.22;;
11907;SDS011;6014;47.690;9.130;2023-06-22T14:37:19;7.38;;;2.67;;
11907;SDS011;6014;47.690;9.130;2023-06-22T14:39:59;9.27;;;3.10;;
11907;SDS011;6014;47.690;9.130;2023-06-22T14:42:29;8.68;;;3.65;;
11907;SDS011;6014;47.690;9.130;2023-06-22T14:44:57;11.27;;;3.22;;
11907;SDS011;6014;47.690;9.130;2023-06-22T14:47:25;10.25;;;3.05;;
11907;SDS011;6014;47.690;9.130;2023-06-22T14:49:54;11.02;;;3.33;;
11907;SDS011;6014;47.690;9.130;2023-06-22T14:52:23;10.93;;;2.70;;
11907;SDS011;6014;47.690;9.130;2023-06-22T14:54:51;11.45;;;2.70;;
11907;SDS011;6014;47.690;9.130;2023-06-22T14:57:19;8.88;;;3.25;;
11907;SDS011;6014;47.690;9.130;2023-06-22T14:59:50;8.95;;;3.05;;
11907;SDS011;6014;47.690;9.130;2023-06-22T15:02:18;7.95;;;3.20;;
11907;SDS011;6014;47.690;9.130;2023-06-22T15:04:47;7.88;;;2.92;;
11907;SDS011;6014;47.690;9.130;2023-06-22T15:07:17;8.65;;;3.20;;
11907;SDS011;6014;47.690;9.130;2023-06-22T15:09:46;8.38;;;3.45;;
11907;SDS011;6014;47.690;9.130;2023-06-22T15:12:14;8.63;;;2.85;;
11907;SDS011;6014;47.690;9.130;2023-06-22T15:14:51;7.90;;;3.10;;
11907;SDS011;6014;47.690;9.130;2023-06-22T15:17:19;12.88;;;3.40;;
11907;SDS011;6014;47.690;9.130;2023-06-22T15:19:47;7.82;;;3.00;;
11907;SDS011;6014;47.690;9.130;2023-06-22T15:22:16;8.25;;;2.90;;
11907;SDS011;6014;47.690;9.130;2023-06-22T15:24:53;9.65;;;3.63;;
11907;SDS011;6014;47.690;9.130;2023-06-22T15:27:24;7.63;;;3.00;;
11907;SDS011;6014;47.690;9.130;2023-06-22T15:29:54;10.70;;;3.90;;
11907;SDS011;6014;47.690;9.130;2023-06-22T15:32:22;8.38;;;2.90;;
11907;SDS011;6014;47.690;9.130;2023-06-22T15:34:51;7.70;;;2.85;;
11907;SDS011;6014;47.690;9.130;2023-06-22T15:37:20;10.38;;;3.42;;
11907;SDS011;6014;47.690;9.130;2023-06-22T15:39:48;6.78;;;2.53;;
11907;SDS011;6014;47.690;9.130;2023-06-22T15:42:17;7.80;;;3.30;;